createdAt,value
2023-01-06T00:00:25.516Z,0.82
2023-01-06T00:02:52.339Z,0.50
2023-01-06T00:05:19.113Z,0.60
2023-01-06T00:07:48.320Z,0.50
2023-01-06T00:10:15.083Z,0.57
2023-01-06T00:12:45.048Z,0.50
2023-01-06T00:15:11.782Z,0.68
2023-01-06T00:17:38.492Z,0.80
2023-01-06T00:20:05.699Z,0.55
2023-01-06T00:22:32.337Z,1.08
2023-01-06T00:24:59.049Z,1.02
2023-01-06T00:27:25.693Z,0.73
2023-01-06T00:29:52.444Z,1.00
2023-01-06T00:32:19.244Z,1.25
2023-01-06T00:34:46.195Z,1.00
2023-01-06T00:37:12.883Z,1.10
2023-01-06T00:39:39.614Z,0.75
2023-01-06T00:42:06.901Z,0.80
2023-01-06T00:44:38.543Z,0.70
2023-01-06T00:47:07.170Z,0.90
2023-01-06T00:49:34.025Z,0.82
2023-01-06T00:52:00.680Z,0.80
2023-01-06T00:54:27.417Z,0.85
2023-01-06T00:56:54.817Z,0.93
2023-01-06T00:59:23.735Z,0.63
2023-01-06T01:01:52.036Z,0.70
2023-01-06T01:04:19.121Z,0.70
2023-01-06T01:06:46.619Z,0.60
2023-01-06T01:09:16.267Z,0.63
2023-01-06T01:12:01.540Z,0.70
2023-01-06T01:14:28.276Z,0.90
2023-01-06T01:16:54.993Z,0.73
2023-01-06T01:19:23.690Z,0.90
2023-01-06T01:21:50.375Z,0.88
2023-01-06T01:24:17.220Z,1.08
2023-01-06T01:26:43.925Z,1.42
2023-01-06T01:29:14.832Z,0.73
2023-01-06T01:31:42.063Z,0.95
2023-01-06T01:34:09.157Z,0.80
2023-01-06T01:36:35.815Z,1.13
2023-01-06T01:39:02.456Z,0.60
2023-01-06T01:41:29.587Z,0.88
2023-01-06T01:44:00.838Z,0.80
2023-01-06T01:46:40.522Z,0.82
2023-01-06T01:49:12.204Z,0.95
2023-01-06T01:51:41.060Z,0.63
2023-01-06T01:54:11.086Z,0.85
2023-01-06T01:56:38.536Z,0.65
2023-01-06T01:59:12.464Z,0.50
2023-01-06T02:01:39.353Z,0.70
2023-01-06T02:04:06.531Z,0.60
2023-01-06T02:06:33.274Z,0.70
2023-01-06T02:09:16.949Z,0.60
2023-01-06T02:11:44.133Z,0.75
2023-01-06T02:14:29.195Z,0.47
2023-01-06T02:17:32.952Z,0.80
2023-01-06T02:20:24.774Z,0.60
2023-01-06T02:23:10.409Z,0.68
2023-01-06T02:25:43.141Z,0.70
2023-01-06T02:28:31.752Z,0.63
2023-01-06T02:31:32.424Z,0.65
2023-01-06T02:34:28.301Z,0.50
2023-01-06T02:37:32.874Z,0.50
2023-01-06T02:40:17.944Z,0.32
2023-01-06T02:43:20.898Z,0.50
2023-01-06T02:45:56.479Z,0.40
2023-01-06T02:48:43.712Z,0.60
2023-01-06T02:51:10.460Z,0.43
2023-01-06T02:53:44.075Z,0.70
2023-01-06T02:56:10.842Z,0.40
2023-01-06T02:58:59.120Z,0.40
2023-01-06T03:01:35.352Z,0.32
2023-01-06T03:04:04.043Z,0.32
2023-01-06T03:06:31.879Z,0.65
2023-01-06T03:08:58.708Z,0.30
2023-01-06T03:11:26.051Z,0.30
2023-01-06T03:14:20.483Z,0.40
2023-01-06T03:16:47.217Z,0.50
2023-01-06T03:19:14.049Z,0.60
2023-01-06T03:21:42.567Z,0.50
2023-01-06T03:24:09.819Z,0.55
2023-01-06T03:26:37.266Z,0.45
2023-01-06T03:29:05.529Z,0.40
2023-01-06T03:31:45.582Z,0.45
2023-01-06T03:34:35.043Z,0.40
2023-01-06T03:37:31.483Z,0.52
2023-01-06T03:40:19.921Z,0.30
2023-01-06T03:43:11.842Z,0.40
2023-01-06T03:45:40.758Z,0.57
2023-01-06T03:48:33.121Z,0.30
2023-01-06T03:51:08.728Z,0.40
2023-01-06T03:53:48.197Z,0.40
2023-01-06T03:56:33.033Z,0.50
2023-01-06T03:59:04.537Z,0.47
2023-01-06T04:01:31.278Z,0.60
2023-01-06T04:03:58.066Z,0.40
2023-01-06T04:06:24.796Z,0.50
2023-01-06T04:08:51.515Z,0.57
2023-01-06T04:11:37.520Z,0.30
2023-01-06T04:14:04.197Z,0.38
2023-01-06T04:16:30.913Z,0.30
2023-01-06T04:18:57.617Z,0.35
2023-01-06T04:21:24.286Z,0.50
2023-01-06T04:23:51.002Z,0.35
2023-01-06T04:26:17.653Z,0.60
2023-01-06T04:28:44.382Z,0.43
2023-01-06T04:31:11.904Z,0.40
2023-01-06T04:33:38.673Z,0.50
2023-01-06T04:36:05.738Z,0.63
2023-01-06T04:38:32.423Z,0.40
2023-01-06T04:40:59.135Z,0.55
2023-01-06T04:43:25.766Z,0.50
2023-01-06T04:45:52.472Z,0.40
2023-01-06T04:48:19.181Z,0.40
2023-01-06T04:50:45.842Z,0.40
2023-01-06T04:53:12.709Z,0.70
2023-01-06T04:55:40.253Z,0.40
2023-01-06T04:58:06.972Z,0.55
2023-01-06T05:00:33.695Z,0.50
2023-01-06T05:03:00.443Z,0.40
2023-01-06T05:05:27.116Z,0.50
2023-01-06T05:07:54.748Z,0.40
2023-01-06T05:10:21.441Z,0.40
2023-01-06T05:12:48.124Z,0.50
2023-01-06T05:15:14.889Z,0.40
2023-01-06T05:17:41.630Z,0.50
2023-01-06T05:20:08.784Z,0.45
2023-01-06T05:22:35.442Z,0.43
2023-01-06T05:25:02.278Z,0.40
2023-01-06T05:27:29.036Z,0.57
2023-01-06T05:29:55.659Z,0.60
2023-01-06T05:32:22.376Z,0.45
2023-01-06T05:34:49.039Z,0.50
2023-01-06T05:37:15.711Z,0.50
2023-01-06T05:39:42.493Z,0.43
2023-01-06T05:42:09.362Z,0.43
2023-01-06T05:44:36.027Z,0.47
2023-01-06T05:47:02.703Z,0.70
2023-01-06T05:49:29.409Z,0.60
2023-01-06T05:51:56.045Z,0.63
2023-01-06T05:54:22.755Z,0.40
2023-01-06T05:56:49.412Z,0.50
2023-01-06T05:59:16.136Z,0.43
2023-01-06T06:01:42.942Z,0.40
2023-01-06T06:04:11.948Z,0.60
2023-01-06T06:06:38.610Z,0.32
2023-01-06T06:09:05.741Z,0.50
2023-01-06T06:11:32.428Z,0.55
2023-01-06T06:13:59.300Z,0.40
2023-01-06T06:16:27.259Z,0.50
2023-01-06T06:18:55.267Z,0.77
2023-01-06T06:21:23.536Z,0.40
2023-01-06T06:23:50.366Z,0.50
2023-01-06T06:26:17.145Z,0.25
2023-01-06T06:28:44.048Z,0.40
2023-01-06T06:31:22.889Z,0.30
2023-01-06T06:33:50.987Z,0.35
2023-01-06T06:36:17.782Z,0.40
2023-01-06T06:38:45.234Z,0.35
2023-01-06T06:41:11.964Z,0.32
2023-01-06T06:43:38.748Z,0.15
2023-01-06T06:46:05.693Z,0.20
2023-01-06T06:48:32.564Z,0.40
2023-01-06T06:51:04.032Z,0.40
2023-01-06T06:53:30.861Z,0.40
2023-01-06T06:56:00.289Z,0.35
2023-01-06T06:58:27.059Z,0.40
2023-01-06T07:00:53.898Z,0.30
2023-01-06T07:03:20.661Z,0.30
2023-01-06T07:05:48.040Z,0.32
2023-01-06T07:08:14.695Z,0.40
2023-01-06T07:10:41.733Z,0.30
2023-01-06T07:13:08.418Z,0.40
2023-01-06T07:15:35.187Z,0.47
2023-01-06T07:18:02.763Z,0.43
2023-01-06T07:20:30.481Z,0.50
2023-01-06T07:22:57.192Z,0.47
2023-01-06T07:25:24.926Z,0.30
2023-01-06T07:27:59.581Z,0.38
2023-01-06T07:30:26.763Z,0.52
2023-01-06T07:32:53.495Z,0.30
2023-01-06T07:35:20.205Z,0.30
2023-01-06T07:37:46.845Z,0.40
2023-01-06T07:40:13.595Z,0.38
2023-01-06T07:42:40.282Z,0.30
2023-01-06T07:45:07.838Z,0.50
2023-01-06T07:47:34.612Z,0.50
2023-01-06T07:50:01.396Z,0.38
2023-01-06T07:52:28.105Z,0.50
2023-01-06T07:54:59.315Z,0.60
2023-01-06T07:57:29.430Z,0.50
2023-01-06T07:59:56.197Z,0.40
2023-01-06T08:02:23.123Z,0.55
2023-01-06T08:04:49.988Z,0.40
2023-01-06T08:07:18.072Z,0.30
2023-01-06T08:09:44.821Z,0.38
2023-01-06T08:12:12.245Z,0.40
2023-01-06T08:14:38.943Z,0.30
2023-01-06T08:17:05.760Z,0.30
2023-01-06T08:19:32.485Z,0.50
2023-01-06T08:21:59.138Z,0.50
2023-01-06T08:24:25.802Z,0.30
2023-01-06T08:26:52.487Z,0.50
2023-01-06T08:29:19.161Z,0.50
2023-01-06T08:31:45.909Z,0.40
2023-01-06T08:34:14.560Z,0.40
2023-01-06T08:36:43.146Z,0.77
2023-01-06T08:39:09.861Z,0.40
2023-01-06T08:41:36.684Z,0.40
2023-01-06T08:44:03.450Z,0.45
2023-01-06T08:46:30.121Z,0.43
2023-01-06T08:48:57.892Z,0.40
2023-01-06T08:51:27.586Z,0.30
2023-01-06T08:53:54.373Z,0.40
2023-01-06T08:56:31.531Z,0.38
2023-01-06T08:58:59.926Z,0.40
2023-01-06T09:01:35.157Z,0.40
2023-01-06T09:04:03.407Z,0.38
2023-01-06T09:06:30.404Z,0.40
2023-01-06T09:08:57.460Z,0.30
2023-01-06T09:11:24.319Z,0.30
2023-01-06T09:13:51.127Z,0.43
2023-01-06T09:16:17.916Z,0.50
2023-01-06T09:18:49.571Z,0.45
2023-01-06T09:21:22.927Z,0.47
2023-01-06T09:26:16.897Z,0.47
2023-01-06T09:28:43.629Z,0.40
2023-01-06T09:31:10.389Z,0.30
2023-01-06T09:33:37.075Z,0.60
2023-01-06T09:36:04.121Z,0.40
2023-01-06T09:38:30.822Z,0.60
2023-01-06T09:41:15.532Z,0.57
2023-01-06T09:43:52.725Z,0.50
2023-01-06T09:46:21.665Z,0.52
2023-01-06T09:49:08.281Z,0.47
2023-01-06T09:51:35.172Z,0.70
2023-01-06T09:54:41.267Z,0.43
2023-01-06T09:57:17.440Z,0.47
2023-01-06T09:59:58.687Z,0.60
2023-01-06T10:02:34.271Z,0.50
2023-01-06T10:05:00.978Z,0.47
2023-01-06T10:07:46.108Z,0.50
2023-01-06T10:10:35.475Z,0.40
2023-01-06T10:13:20.643Z,0.50
2023-01-06T10:16:04.638Z,1.40
2023-01-06T10:18:40.267Z,0.80
2023-01-06T10:21:12.688Z,0.60
2023-01-06T10:23:45.356Z,0.80
2023-01-06T10:26:38.031Z,1.13
2023-01-06T10:29:06.703Z,0.80
2023-01-06T10:31:35.128Z,0.70
2023-01-06T10:34:02.155Z,0.70
2023-01-06T10:36:34.978Z,0.50
2023-01-06T10:39:02.064Z,0.60
2023-01-06T10:41:56.756Z,0.60
2023-01-06T10:44:23.450Z,0.47
2023-01-06T10:46:50.282Z,0.50
2023-01-06T10:49:21.297Z,0.60
2023-01-06T10:51:56.657Z,0.50
2023-01-06T10:54:24.958Z,0.60
2023-01-06T10:56:56.824Z,0.63
2023-01-06T10:59:23.645Z,0.68
2023-01-06T11:01:52.218Z,0.70
2023-01-06T11:04:20.213Z,0.70
2023-01-06T11:07:00.411Z,0.70
2023-01-06T11:09:33.731Z,0.90
2023-01-06T11:14:32.243Z,0.70
2023-01-06T11:17:01.234Z,0.80
2023-01-06T11:19:44.496Z,0.63
2023-01-06T11:22:34.342Z,0.80
2023-01-06T11:25:01.286Z,0.52
2023-01-06T11:27:28.070Z,0.70
2023-01-06T11:29:54.783Z,0.80
2023-01-06T11:32:27.014Z,0.60
2023-01-06T11:35:01.654Z,0.70
2023-01-06T11:37:41.656Z,0.70
2023-01-06T11:40:23.431Z,0.57
2023-01-06T11:42:51.853Z,0.60
2023-01-06T11:45:34.274Z,0.60
2023-01-06T11:48:08.095Z,0.82
2023-01-06T11:50:34.837Z,0.80
2023-01-06T11:53:03.012Z,0.80
2023-01-06T11:55:30.699Z,0.93
2023-01-06T11:58:13.587Z,0.80
2023-01-06T12:00:45.649Z,0.85
2023-01-06T12:03:41.347Z,0.70
2023-01-06T12:06:14.319Z,0.70
2023-01-06T12:09:01.976Z,1.08
2023-01-06T12:11:57.060Z,0.80
2023-01-06T12:14:29.834Z,1.00
2023-01-06T12:17:24.006Z,0.85
2023-01-06T12:20:03.308Z,0.75
2023-01-06T12:22:53.829Z,0.90
2023-01-06T12:25:37.527Z,0.80
2023-01-06T12:28:06.815Z,1.10
2023-01-06T12:30:54.505Z,0.95
2023-01-06T12:33:47.267Z,0.80
2023-01-06T12:36:19.669Z,0.80
2023-01-06T12:38:55.195Z,1.10
2023-01-06T12:41:47.729Z,0.75
2023-01-06T12:44:20.163Z,0.70
2023-01-06T12:46:59.272Z,0.85
2023-01-06T12:49:40.241Z,0.70
2023-01-06T12:52:18.348Z,0.50
2023-01-06T12:54:50.425Z,0.65
2023-01-06T12:57:32.863Z,0.63
2023-01-06T13:00:22.997Z,0.80
2023-01-06T13:03:02.203Z,0.77
2023-01-06T13:05:37.844Z,0.68
2023-01-06T13:08:28.737Z,0.52
2023-01-06T13:11:05.941Z,0.80
2023-01-06T13:14:12.091Z,0.90
2023-01-06T13:16:47.174Z,0.80
2023-01-06T13:19:23.347Z,0.90
2023-01-06T13:21:50.930Z,0.63
2023-01-06T13:24:42.438Z,0.80
2023-01-06T13:27:41.364Z,0.68
2023-01-06T13:30:30.854Z,0.60
2023-01-06T13:33:15.728Z,0.70
2023-01-06T13:35:42.411Z,0.65
2023-01-06T13:38:30.748Z,0.50
2023-01-06T13:40:59.090Z,0.55
2023-01-06T13:43:29.921Z,0.63
2023-01-06T13:45:59.532Z,0.68
2023-01-06T13:48:32.323Z,0.70
2023-01-06T13:51:00.112Z,0.60
2023-01-06T13:53:27.416Z,0.50
2023-01-06T13:56:12.730Z,0.60
2023-01-06T13:58:43.280Z,0.50
2023-01-06T14:01:13.528Z,0.63
2023-01-06T14:03:41.094Z,0.50
2023-01-06T14:06:23.395Z,0.55
2023-01-06T14:08:54.366Z,0.50
2023-01-06T14:11:30.047Z,0.50
2023-01-06T14:14:07.104Z,0.40
2023-01-06T14:16:44.568Z,0.50
2023-01-06T14:19:31.014Z,0.55
2023-01-06T14:22:17.796Z,0.63
2023-01-06T14:24:51.040Z,0.60
2023-01-06T14:29:46.007Z,0.50
2023-01-06T14:32:16.824Z,0.60
2023-01-06T14:34:57.565Z,0.82
2023-01-06T14:37:26.763Z,0.73
2023-01-06T14:39:54.156Z,0.80
2023-01-06T14:42:29.975Z,0.70
2023-01-06T14:44:58.940Z,0.65
2023-01-06T14:47:45.955Z,0.60
2023-01-06T14:50:19.471Z,0.70
2023-01-06T14:52:49.421Z,0.57
2023-01-06T14:55:18.747Z,0.50
2023-01-06T14:57:45.560Z,0.50
2023-01-06T15:00:27.003Z,0.40
2023-01-06T15:02:55.116Z,0.45
2023-01-06T15:05:28.792Z,0.40
2023-01-06T15:07:59.370Z,0.40
2023-01-06T15:10:27.067Z,0.52
2023-01-06T15:12:57.011Z,0.60
2023-01-06T15:15:31.686Z,0.50
2023-01-06T15:17:59.262Z,0.75
2023-01-06T15:20:34.250Z,0.63
2023-01-06T15:23:01.115Z,0.57
2023-01-06T15:25:29.158Z,0.60
2023-01-06T15:27:57.330Z,0.73
2023-01-06T15:30:25.768Z,0.55
2023-01-06T15:32:52.767Z,0.63
2023-01-06T15:35:24.790Z,0.60
2023-01-06T15:38:03.698Z,0.60
2023-01-06T15:40:30.374Z,0.70
2023-01-06T15:42:57.249Z,0.50
2023-01-06T15:45:29.264Z,0.63
2023-01-06T15:47:56.247Z,0.60
2023-01-06T15:50:25.891Z,0.68
2023-01-06T15:52:57.357Z,0.70
2023-01-06T15:55:28.231Z,0.60
2023-01-06T15:58:01.072Z,1.20
2023-01-06T16:00:29.943Z,0.80
2023-01-06T16:02:56.679Z,0.50
2023-01-06T16:05:43.304Z,0.65
2023-01-06T16:08:26.209Z,0.85
2023-01-06T16:11:37.936Z,0.95
2023-01-06T16:14:05.447Z,0.50
2023-01-06T16:16:35.659Z,0.70
2023-01-06T16:19:14.821Z,0.60
2023-01-06T16:21:41.489Z,0.50
2023-01-06T16:24:19.240Z,0.60
2023-01-06T16:26:52.610Z,0.60
2023-01-06T16:29:29.507Z,0.60
2023-01-06T16:31:57.829Z,0.57
2023-01-06T16:34:27.790Z,0.70
2023-01-06T16:36:56.555Z,0.70
2023-01-06T16:39:23.653Z,0.60
2023-01-06T16:41:59.679Z,0.70
2023-01-06T16:44:30.552Z,0.50
2023-01-06T16:46:57.996Z,0.50
2023-01-06T16:49:24.989Z,0.40
2023-01-06T16:51:51.648Z,0.55
2023-01-06T16:54:21.039Z,0.40
2023-01-06T16:56:47.769Z,0.60
2023-01-06T16:59:18.188Z,0.50
2023-01-06T17:01:45.568Z,0.50
2023-01-06T17:04:12.850Z,0.30
2023-01-06T17:06:40.032Z,0.50
2023-01-06T17:09:20.518Z,0.50
2023-01-06T17:11:48.021Z,0.52
2023-01-06T17:14:22.044Z,0.35
2023-01-06T17:16:49.136Z,0.32
2023-01-06T17:19:19.493Z,0.45
2023-01-06T17:21:47.313Z,0.40
2023-01-06T17:24:23.386Z,0.40
2023-01-06T17:26:51.670Z,0.38
2023-01-06T17:29:19.612Z,0.50
2023-01-06T17:31:47.538Z,0.45
2023-01-06T17:34:17.774Z,0.40
2023-01-06T17:36:48.419Z,0.30
2023-01-06T17:39:31.757Z,0.35
2023-01-06T17:42:07.687Z,0.30
2023-01-06T17:44:36.993Z,0.30
2023-01-06T17:47:17.610Z,0.40
2023-01-06T17:49:47.417Z,0.40
2023-01-06T17:52:15.769Z,0.47
2023-01-06T17:55:02.340Z,0.50
2023-01-06T17:57:29.012Z,0.70
2023-01-06T17:59:55.891Z,0.60
2023-01-06T18:02:36.042Z,0.57
2023-01-06T18:05:11.231Z,0.50
2023-01-06T18:07:37.912Z,0.60
2023-01-06T18:10:10.263Z,0.47
2023-01-06T18:12:37.042Z,0.30
2023-01-06T18:15:38.666Z,0.45
2023-01-06T18:18:16.607Z,0.30
2023-01-06T18:20:47.694Z,0.45
2023-01-06T18:23:19.285Z,0.47
2023-01-06T18:25:46.020Z,0.45
2023-01-06T18:28:19.007Z,0.43
2023-01-06T18:30:46.517Z,0.63
2023-01-06T18:33:15.620Z,0.77
2023-01-06T18:35:42.321Z,0.50
2023-01-06T18:38:09.125Z,0.40
2023-01-06T18:40:37.173Z,0.60
2023-01-06T18:43:26.269Z,0.70
2023-01-06T18:45:55.342Z,0.60
2023-01-06T18:48:31.922Z,0.35
2023-01-06T18:51:02.399Z,0.60
2023-01-06T18:53:45.002Z,0.50
2023-01-06T18:56:24.915Z,0.40
2023-01-06T18:58:53.139Z,0.70
2023-01-06T19:01:42.424Z,0.55
2023-01-06T19:04:19.100Z,0.60
2023-01-06T19:06:49.892Z,0.70
2023-01-06T19:09:16.640Z,0.60
2023-01-06T19:11:43.363Z,0.60
2023-01-06T19:14:18.794Z,0.70
2023-01-06T19:16:49.655Z,0.70
2023-01-06T19:19:38.643Z,0.85
2023-01-06T19:22:14.713Z,0.50
2023-01-06T19:24:44.967Z,0.73
2023-01-06T19:27:39.440Z,0.80
2023-01-06T19:30:31.077Z,0.60
2023-01-06T19:33:22.934Z,0.63
2023-01-06T19:35:53.256Z,0.90
2023-01-06T19:38:25.556Z,0.65
2023-01-06T19:40:52.350Z,0.70
2023-01-06T19:43:26.968Z,0.85
2023-01-06T19:45:53.821Z,0.90
2023-01-06T19:48:27.810Z,0.85
2023-01-06T19:51:01.228Z,0.60
2023-01-06T19:53:44.732Z,0.80
2023-01-06T19:58:52.374Z,1.40
2023-01-06T20:01:19.452Z,0.70
2023-01-06T20:03:46.717Z,1.00
2023-01-06T20:06:13.805Z,0.80
2023-01-06T20:08:43.319Z,0.80
2023-01-06T20:11:10.678Z,0.70
2023-01-06T20:13:37.402Z,0.90
2023-01-06T20:16:05.115Z,0.90
2023-01-06T20:18:32.022Z,0.60
2023-01-06T20:20:58.703Z,1.15
2023-01-06T20:23:25.400Z,0.68
2023-01-06T20:25:52.086Z,0.70
2023-01-06T20:28:18.927Z,0.60
2023-01-06T20:30:46.523Z,0.55
2023-01-06T20:33:13.408Z,0.70
2023-01-06T20:35:40.085Z,0.80
2023-01-06T20:38:06.978Z,0.60
2023-01-06T20:40:33.716Z,0.93
2023-01-06T20:43:00.389Z,0.80
2023-01-06T20:45:27.037Z,1.15
2023-01-06T20:47:53.868Z,1.00
2023-01-06T20:50:20.864Z,0.95
2023-01-06T20:52:47.715Z,0.75
2023-01-06T20:55:14.567Z,0.60
2023-01-06T20:57:42.112Z,1.08
2023-01-06T21:00:10.863Z,0.65
2023-01-06T21:02:37.827Z,1.08
2023-01-06T21:05:05.790Z,0.70
2023-01-06T21:07:33.375Z,0.90
2023-01-06T21:10:00.455Z,0.80
2023-01-06T21:12:29.728Z,0.77
2023-01-06T21:14:56.523Z,1.17
2023-01-06T21:17:23.181Z,1.42
2023-01-06T21:19:49.882Z,0.70
2023-01-06T21:22:16.605Z,1.20
2023-01-06T21:24:43.428Z,0.90
2023-01-06T21:27:10.089Z,0.70
2023-01-06T21:29:37.081Z,0.88
2023-01-06T21:32:03.937Z,1.40
2023-01-06T21:34:30.724Z,0.70
2023-01-06T21:36:57.442Z,1.00
2023-01-06T21:39:24.100Z,1.23
2023-01-06T21:42:09.633Z,0.60
2023-01-06T21:44:36.307Z,0.60
2023-01-06T21:47:04.132Z,0.70
2023-01-06T21:49:31.274Z,0.80
2023-01-06T21:51:58.532Z,0.70
2023-01-06T21:54:25.258Z,0.70
2023-01-06T21:56:51.961Z,0.90
2023-01-06T21:59:18.730Z,0.95
2023-01-06T22:01:45.562Z,0.57
2023-01-06T22:04:12.405Z,1.00
2023-01-06T22:06:40.280Z,0.77
2023-01-06T22:09:08.131Z,0.70
2023-01-06T22:11:35.203Z,0.93
2023-01-06T22:14:01.924Z,0.77
2023-01-06T22:16:28.639Z,1.17
2023-01-06T22:18:57.286Z,1.10
2023-01-06T22:21:25.115Z,0.85
2023-01-06T22:23:51.917Z,1.25
2023-01-06T22:26:18.937Z,1.08
2023-01-06T22:28:45.606Z,1.13
2023-01-06T22:31:12.361Z,1.02
2023-01-06T22:33:39.123Z,1.15
2023-01-06T22:36:06.059Z,0.70
2023-01-06T22:38:32.817Z,0.80
2023-01-06T22:40:59.562Z,0.80
2023-01-06T22:43:26.284Z,0.70
2023-01-06T22:45:53.804Z,0.98
2023-01-06T22:48:20.563Z,0.90
2023-01-06T22:50:47.234Z,1.27
2023-01-06T22:53:13.896Z,1.05
2023-01-06T22:55:40.610Z,1.38
2023-01-06T22:58:07.719Z,1.15
2023-01-06T23:00:34.524Z,1.00
2023-01-06T23:03:01.317Z,1.17
2023-01-06T23:05:28.913Z,0.90
2023-01-06T23:07:55.590Z,0.90
2023-01-06T23:10:22.279Z,1.00
2023-01-06T23:12:49.002Z,0.90
2023-01-06T23:15:15.818Z,1.27
2023-01-06T23:17:42.570Z,0.85
2023-01-06T23:20:09.849Z,0.90
2023-01-06T23:22:37.247Z,1.17
2023-01-06T23:25:04.218Z,1.10
2023-01-06T23:27:31.536Z,1.05
2023-01-06T23:29:58.388Z,0.95
2023-01-06T23:32:25.081Z,0.80
2023-01-06T23:34:51.755Z,0.85
2023-01-06T23:37:18.421Z,1.00
2023-01-06T23:39:45.103Z,0.93
2023-01-06T23:42:11.787Z,1.05
2023-01-06T23:44:38.467Z,0.90
2023-01-06T23:47:07.556Z,1.20
2023-01-06T23:49:34.861Z,1.00
2023-01-06T23:52:01.504Z,1.00
2023-01-06T23:54:28.471Z,0.95
2023-01-06T23:56:55.139Z,0.80
2023-01-06T23:59:21.841Z,1.10
